Terminal Aerodrome Forecast
Issued by NWS

Home | Current Version | Previous Version | Text Only | Print | Product List | Glossary On
Versions: 1 2 3 4 5 6 7 8 9 10 11 12 13 14 15 16 17 18 19 20 21 22
000
FTUS43 KLSX 140700 AAA
TAFSUS
TAF AMD
KSUS 140729Z 1407/1506 27009KT P6SM BKN015
     FM140800 28014KT P6SM SCT005 OVC012
      TEMPO 1408/1412 5SM -RA BR BKN005 OVC012
     FM141400 30014G22KT P6SM OVC015
     FM141800 33017G27KT P6SM OVC020
      TEMPO 1419/1423 5SM -RA
     FM150200 34015KT P6SM BKN035=

USA.gov is the U.S. government's official web portal to all federal, state and local government web resources and services.